Kim, Colorado
Current Conditions -  °F | °C
As of 3:54 PM on Wednesday 22 Oct 2014 (Local Time) from KTAD Reporting Station
Few Clouds Few Clouds  
Wind Chill: 70°   Ceiling: Unl
Heat Index: 70°   Visibility: 10mi
Dew Point: 37°   Wind: 5mph
Humidity: 30%   Direction: NA
Pressure: 30.09"   Gusts: NA
Location:  37.25°N, 103.35°W
Report Text: KTAD 222154Z AUTO VRB04KT 10SM FEW095 FEW120 21/03 A3009 RMK AO2 SLP123 T02110028
Loading
Personal Weather Stations






























Interactive Weather Map
Tropical Storm Tracking
New forecast layout! Learn more

10-Day Weather Forecast

Advertisements
Track Severe Weather on mobile